sensor_id;sensor_type;location;lat;lon;timestamp;pressure;altitude;pressure_sealevel;temperature
74485;BMP280;62942;52.462;10.846;2022-12-24T00:00:46;99550;;;
74485;BMP280;62942;52.462;10.846;2022-12-24T00:01:56;99550;;;
74485;BMP280;62942;52.462;10.846;2022-12-24T00:02:56;99560;;;
74485;BMP280;62942;52.462;10.846;2022-12-24T00:04:06;99560;;;
74485;BMP280;62942;52.462;10.846;2022-12-24T00:05:06;99560;;;
74485;BMP280;62942;52.462;10.846;2022-12-24T00:06:16;99560;;;
74485;BMP280;62942;52.462;10.846;2022-12-24T00:07:16;99550;;;
74485;BMP280;62942;52.462;10.846;2022-12-24T00:08:26;99540;;;
74485;BMP280;62942;52.462;10.846;2022-12-24T00:09:26;99530;;;
74485;BMP280;62942;52.462;10.846;2022-12-24T00:10:36;99540;;;
74485;BMP280;62942;52.462;10.846;2022-12-24T00:11:46;99530;;;
74485;BMP280;62942;52.462;10.846;2022-12-24T00:12:46;99530;;;
74485;BMP280;62942;52.462;10.846;2022-12-24T00:13:56;99540;;;
74485;BMP280;62942;52.462;10.846;2022-12-24T00:15:06;99540;;;
74485;BMP280;62942;52.462;10.846;2022-12-24T00:16:06;99540;;;
74485;BMP280;62942;52.462;10.846;2022-12-24T00:17:06;99520;;;
74485;BMP280;62942;52.462;10.846;2022-12-24T00:18:16;99520;;;
74485;BMP280;62942;52.462;10.846;2022-12-24T00:19:16;99520;;;
74485;BMP280;62942;52.462;10.846;2022-12-24T00:20:16;99550;;;
74485;BMP280;62942;52.462;10.846;2022-12-24T00:21:26;99540;;;
74485;BMP280;62942;52.462;10.846;2022-12-24T00:22:36;99560;;;
74485;BMP280;62942;52.462;10.846;2022-12-24T00:23:46;99560;;;
74485;BMP280;62942;52.462;10.846;2022-12-24T00:24:46;99570;;;
74485;BMP280;62942;52.462;10.846;2022-12-24T00:25:56;99580;;;
74485;BMP280;62942;52.462;10.846;2022-12-24T00:26:56;99580;;;
74485;BMP280;62942;52.462;10.846;2022-12-24T00:28:06;99580;;;
74485;BMP280;62942;52.462;10.846;2022-12-24T00:29:16;99580;;;
74485;BMP280;62942;52.462;10.846;2022-12-24T00:30:16;99580;;;
74485;BMP280;62942;52.462;10.846;2022-12-24T00:31:26;99580;;;
74485;BMP280;62942;52.462;10.846;2022-12-24T00:32:35;99570;;;
74485;BMP280;62942;52.462;10.846;2022-12-24T00:33:36;99570;;;
74485;BMP280;62942;52.462;10.846;2022-12-24T00:34:36;99570;;;
74485;BMP280;62942;52.462;10.846;2022-12-24T00:35:48;99570;;;
74485;BMP280;62942;52.462;10.846;2022-12-24T00:36:55;99580;;;
74485;BMP280;62942;52.462;10.846;2022-12-24T00:37:56;99580;;;
74485;BMP280;62942;52.462;10.846;2022-12-24T00:39:05;99580;;;
74485;BMP280;62942;52.462;10.846;2022-12-24T00:40:16;99580;;;
74485;BMP280;62942;52.462;10.846;2022-12-24T00:41:25;99580;;;
74485;BMP280;62942;52.462;10.846;2022-12-24T00:42:36;99570;;;
74485;BMP280;62942;52.462;10.846;2022-12-24T00:43:45;99580;;;
74485;BMP280;62942;52.462;10.846;2022-12-24T00:44:56;99580;;;
74485;BMP280;62942;52.462;10.846;2022-12-24T00:46:05;99580;;;
74485;BMP280;62942;52.462;10.846;2022-12-24T00:47:05;99580;;;
74485;BMP280;62942;52.462;10.846;2022-12-24T00:48:15;99590;;;
74485;BMP280;62942;52.462;10.846;2022-12-24T00:49:15;99580;;;
74485;BMP280;62942;52.462;10.846;2022-12-24T00:50:25;99580;;;
74485;BMP280;62942;52.462;10.846;2022-12-24T00:51:36;99580;;;
74485;BMP280;62942;52.462;10.846;2022-12-24T00:52:45;99580;;;
74485;BMP280;62942;52.462;10.846;2022-12-24T00:53:46;99580;;;
74485;BMP280;62942;52.462;10.846;2022-12-24T00:54:56;99580;;;
74485;BMP280;62942;52.462;10.846;2022-12-24T00:56:06;99580;;;
74485;BMP280;62942;52.462;10.846;2022-12-24T00:57:05;99590;;;
74485;BMP280;62942;52.462;10.846;2022-12-24T00:58:06;99590;;;
74485;BMP280;62942;52.462;10.846;2022-12-24T00:59:15;99590;;;
74485;BMP280;62942;52.462;10.846;2022-12-24T01:00:25;99590;;;
74485;BMP280;62942;52.462;10.846;2022-12-24T01:01:35;99590;;;
74485;BMP280;62942;52.462;10.846;2022-12-24T01:02:36;99590;;;
74485;BMP280;62942;52.462;10.846;2022-12-24T01:03:46;99590;;;
74485;BMP280;62942;52.462;10.846;2022-12-24T01:04:55;99590;;;
74485;BMP280;62942;52.462;10.846;2022-12-24T01:05:56;99580;;;
74485;BMP280;62942;52.462;10.846;2022-12-24T01:07:05;99580;;;
74485;BMP280;62942;52.462;10.846;2022-12-24T01:08:15;99590;;;
74485;BMP280;62942;52.462;10.846;2022-12-24T01:09:15;99590;;;
74485;BMP280;62942;52.462;10.846;2022-12-24T01:10:25;99600;;;
74485;BMP280;62942;52.462;10.846;2022-12-24T01:11:36;99600;;;
74485;BMP280;62942;52.462;10.846;2022-12-24T01:12:36;99600;;;
74485;BMP280;62942;52.462;10.846;2022-12-24T01:13:45;99600;;;
74485;BMP280;62942;52.462;10.846;2022-12-24T01:14:55;99600;;;
74485;BMP280;62942;52.462;10.846;2022-12-24T01:15:55;99600;;;
74485;BMP280;62942;52.462;10.846;2022-12-24T01:17:05;99590;;;
74485;BMP280;62942;52.462;10.846;2022-12-24T01:18:16;99600;;;
74485;BMP280;62942;52.462;10.846;2022-12-24T01:19:25;99610;;;
74485;BMP280;62942;52.462;10.846;2022-12-24T01:20:25;99610;;;
74485;BMP280;62942;52.462;10.846;2022-12-24T01:21:35;99620;;;
74485;BMP280;62942;52.462;10.846;2022-12-24T01:22:46;99620;;;
74485;BMP280;62942;52.462;10.846;2022-12-24T01:23:55;99610;;;
74485;BMP280;62942;52.462;10.846;2022-12-24T01:25:06;99610;;;
74485;BMP280;62942;52.462;10.846;2022-12-24T01:26:15;99610;;;
74485;BMP280;62942;52.462;10.846;2022-12-24T01:27:15;99610;;;
74485;BMP280;62942;52.462;10.846;2022-12-24T01:28:26;99610;;;
74485;BMP280;62942;52.462;10.846;2022-12-24T01:29:35;99620;;;
74485;BMP280;62942;52.462;10.846;2022-12-24T01:30:45;99620;;;
74485;BMP280;62942;52.462;10.846;2022-12-24T01:31:56;99620;;;
74485;BMP280;62942;52.462;10.846;2022-12-24T01:32:55;99630;;;
74485;BMP280;62942;52.462;10.846;2022-12-24T01:34:05;99630;;;
74485;BMP280;62942;52.462;10.846;2022-12-24T01:35:15;99620;;;
74485;BMP280;62942;52.462;10.846;2022-12-24T01:36:16;99620;;;
74485;BMP280;62942;52.462;10.846;2022-12-24T01:37:25;99620;;;
74485;BMP280;62942;52.462;10.846;2022-12-24T01:38:35;99610;;;
74485;BMP280;62942;52.462;10.846;2022-12-24T01:39:35;99610;;;
74485;BMP280;62942;52.462;10.846;2022-12-24T01:40:45;99620;;;
74485;BMP280;62942;52.462;10.846;2022-12-24T01:41:55;99620;;;
74485;BMP280;62942;52.462;10.846;2022-12-24T01:42:55;99610;;;
74485;BMP280;62942;52.462;10.846;2022-12-24T01:44:23;99610;;;
74485;BMP280;62942;52.462;10.846;2022-12-24T01:45:48;99610;;;
74485;BMP280;62942;52.462;10.846;2022-12-24T01:46:26;99620;;;
74485;BMP280;62942;52.462;10.846;2022-12-24T01:47:26;99630;;;
74485;BMP280;62942;52.462;10.846;2022-12-24T01:48:36;99630;;;
74485;BMP280;62942;52.462;10.846;2022-12-24T01:49:36;99640;;;
74485;BMP280;62942;52.462;10.846;2022-12-24T01:50:46;99630;;;
74485;BMP280;62942;52.462;10.846;2022-12-24T01:51:46;99630;;;
74485;BMP280;62942;52.462;10.846;2022-12-24T01:52:55;99640;;;
74485;BMP280;62942;52.462;10.846;2022-12-24T01:53:56;99640;;;
74485;BMP280;62942;52.462;10.846;2022-12-24T01:54:56;99650;;;
74485;BMP280;62942;52.462;10.846;2022-12-24T01:56:05;99650;;;
74485;BMP280;62942;52.462;10.846;2022-12-24T01:57:17;99650;;;
74485;BMP280;62942;52.462;10.846;2022-12-24T01:58:16;99650;;;
74485;BMP280;62942;52.462;10.846;2022-12-24T01:59:25;99650;;;
74485;BMP280;62942;52.462;10.846;2022-12-24T02:00:35;99650;;;
74485;BMP280;62942;52.462;10.846;2022-12-24T02:01:45;99650;;;
74485;BMP280;62942;52.462;10.846;2022-12-24T02:02:46;99660;;;
74485;BMP280;62942;52.462;10.846;2022-12-24T02:03:55;99660;;;
74485;BMP280;62942;52.462;10.846;2022-12-24T02:05:06;99660;;;
74485;BMP280;62942;52.462;10.846;2022-12-24T02:06:05;99650;;;
74485;BMP280;62942;52.462;10.846;2022-12-24T02:07:05;99640;;;
74485;BMP280;62942;52.462;10.846;2022-12-24T02:08:16;99650;;;
74485;BMP280;62942;52.462;10.846;2022-12-24T02:09:26;99640;;;
74485;BMP280;62942;52.462;10.846;2022-12-24T02:10:35;99650;;;
74485;BMP280;62942;52.462;10.846;2022-12-24T02:11:36;99650;;;
74485;BMP280;62942;52.462;10.846;2022-12-24T02:12:45;99640;;;
74485;BMP280;62942;52.462;10.846;2022-12-24T02:13:46;99640;;;
74485;BMP280;62942;52.462;10.846;2022-12-24T02:14:55;99640;;;
74485;BMP280;62942;52.462;10.846;2022-12-24T02:16:07;99640;;;
74485;BMP280;62942;52.462;10.846;2022-12-24T02:17:07;99630;;;
74485;BMP280;62942;52.462;10.846;2022-12-24T02:18:17;99640;;;
74485;BMP280;62942;52.462;10.846;2022-12-24T02:19:44;99640;;;
74485;BMP280;62942;52.462;10.846;2022-12-24T02:20:29;99640;;;
74485;BMP280;62942;52.462;10.846;2022-12-24T02:21:38;99650;;;
74485;BMP280;62942;52.462;10.846;2022-12-24T02:22:50;99660;;;
74485;BMP280;62942;52.462;10.846;2022-12-24T02:24:01;99660;;;
74485;BMP280;62942;52.462;10.846;2022-12-24T02:25:09;99660;;;
74485;BMP280;62942;52.462;10.846;2022-12-24T02:26:10;99660;;;
74485;BMP280;62942;52.462;10.846;2022-12-24T02:27:18;99670;;;
74485;BMP280;62942;52.462;10.846;2022-12-24T02:28:30;99670;;;
74485;BMP280;62942;52.462;10.846;2022-12-24T02:29:30;99680;;;
74485;BMP280;62942;52.462;10.846;2022-12-24T02:30:37;99680;;;
74485;BMP280;62942;52.462;10.846;2022-12-24T02:31:47;99690;;;
74485;BMP280;62942;52.462;10.846;2022-12-24T02:33:02;99670;;;
74485;BMP280;62942;52.462;10.846;2022-12-24T02:33:56;99670;;;
74485;BMP280;62942;52.462;10.846;2022-12-24T02:35:07;99660;;;
74485;BMP280;62942;52.462;10.846;2022-12-24T02:36:18;99660;;;
74485;BMP280;62942;52.462;10.846;2022-12-24T02:37:16;99650;;;
74485;BMP280;62942;52.462;10.846;2022-12-24T02:38:27;99650;;;
74485;BMP280;62942;52.462;10.846;2022-12-24T02:39:36;99660;;;
74485;BMP280;62942;52.462;10.846;2022-12-24T02:40:37;99670;;;
74485;BMP280;62942;52.462;10.846;2022-12-24T02:41:48;99670;;;
74485;BMP280;62942;52.462;10.846;2022-12-24T02:42:48;99670;;;
74485;BMP280;62942;52.462;10.846;2022-12-24T02:43:55;99680;;;
74485;BMP280;62942;52.462;10.846;2022-12-24T02:45:06;99670;;;
74485;BMP280;62942;52.462;10.846;2022-12-24T02:46:16;99670;;;
74485;BMP280;62942;52.462;10.846;2022-12-24T02:47:15;99670;;;
74485;BMP280;62942;52.462;10.846;2022-12-24T02:48:25;99660;;;
74485;BMP280;62942;52.462;10.846;2022-12-24T02:49:36;99660;;;
74485;BMP280;62942;52.462;10.846;2022-12-24T02:50:35;99650;;;
74485;BMP280;62942;52.462;10.846;2022-12-24T02:51:45;99670;;;
74485;BMP280;62942;52.462;10.846;2022-12-24T02:52:46;99680;;;
74485;BMP280;62942;52.462;10.846;2022-12-24T02:53:55;99680;;;
74485;BMP280;62942;52.462;10.846;2022-12-24T02:55:06;99680;;;
74485;BMP280;62942;52.462;10.846;2022-12-24T02:57:11;99690;;;
74485;BMP280;62942;52.462;10.846;2022-12-24T02:57:16;99680;;;
74485;BMP280;62942;52.462;10.846;2022-12-24T02:58:20;99680;;;
74485;BMP280;62942;52.462;10.846;2022-12-24T02:59:30;99690;;;
74485;BMP280;62942;52.462;10.846;2022-12-24T03:00:39;99680;;;
74485;BMP280;62942;52.462;10.846;2022-12-24T03:01:38;99680;;;
74485;BMP280;62942;52.462;10.846;2022-12-24T03:02:48;99680;;;
74485;BMP280;62942;52.462;10.846;2022-12-24T03:03:59;99680;;;
74485;BMP280;62942;52.462;10.846;2022-12-24T03:05:08;99680;;;
74485;BMP280;62942;52.462;10.846;2022-12-24T03:06:07;99680;;;
74485;BMP280;62942;52.462;10.846;2022-12-24T03:07:16;99680;;;
74485;BMP280;62942;52.462;10.846;2022-12-24T03:08:27;99680;;;
74485;BMP280;62942;52.462;10.846;2022-12-24T03:09:26;99670;;;
74485;BMP280;62942;52.462;10.846;2022-12-24T03:10:36;99670;;;
74485;BMP280;62942;52.462;10.846;2022-12-24T03:11:35;99680;;;
74485;BMP280;62942;52.462;10.846;2022-12-24T03:12:46;99680;;;
74485;BMP280;62942;52.462;10.846;2022-12-24T03:13:55;99680;;;
74485;BMP280;62942;52.462;10.846;2022-12-24T03:14:55;99690;;;
74485;BMP280;62942;52.462;10.846;2022-12-24T03:16:06;99690;;;
74485;BMP280;62942;52.462;10.846;2022-12-24T03:17:15;99690;;;
74485;BMP280;62942;52.462;10.846;2022-12-24T03:18:16;99690;;;
74485;BMP280;62942;52.462;10.846;2022-12-24T03:19:25;99700;;;
74485;BMP280;62942;52.462;10.846;2022-12-24T03:20:36;99700;;;
74485;BMP280;62942;52.462;10.846;2022-12-24T03:21:37;99690;;;
74485;BMP280;62942;52.462;10.846;2022-12-24T03:22:45;99700;;;
74485;BMP280;62942;52.462;10.846;2022-12-24T03:23:55;99690;;;
74485;BMP280;62942;52.462;10.846;2022-12-24T03:24:55;99690;;;
74485;BMP280;62942;52.462;10.846;2022-12-24T03:26:06;99700;;;
74485;BMP280;62942;52.462;10.846;2022-12-24T03:27:15;99700;;;
74485;BMP280;62942;52.462;10.846;2022-12-24T03:28:16;99700;;;
74485;BMP280;62942;52.462;10.846;2022-12-24T03:29:25;99700;;;
74485;BMP280;62942;52.462;10.846;2022-12-24T03:30:25;99700;;;
74485;BMP280;62942;52.462;10.846;2022-12-24T03:31:39;99700;;;
74485;BMP280;62942;52.462;10.846;2022-12-24T03:32:45;99700;;;
74485;BMP280;62942;52.462;10.846;2022-12-24T03:33:45;99700;;;
74485;BMP280;62942;52.462;10.846;2022-12-24T03:34:55;99700;;;
74485;BMP280;62942;52.462;10.846;2022-12-24T03:36:06;99700;;;
74485;BMP280;62942;52.462;10.846;2022-12-24T03:37:15;99700;;;
74485;BMP280;62942;52.462;10.846;2022-12-24T03:38:15;99710;;;
74485;BMP280;62942;52.462;10.846;2022-12-24T03:39:25;99710;;;
74485;BMP280;62942;52.462;10.846;2022-12-24T03:40:35;99700;;;
74485;BMP280;62942;52.462;10.846;2022-12-24T03:41:35;99700;;;
74485;BMP280;62942;52.462;10.846;2022-12-24T03:42:45;99710;;;
74485;BMP280;62942;52.462;10.846;2022-12-24T03:43:55;99710;;;
74485;BMP280;62942;52.462;10.846;2022-12-24T03:45:05;99720;;;
74485;BMP280;62942;52.462;10.846;2022-12-24T03:46:06;99710;;;
74485;BMP280;62942;52.462;10.846;2022-12-24T03:47:15;99710;;;
74485;BMP280;62942;52.462;10.846;2022-12-24T03:48:25;99720;;;
74485;BMP280;62942;52.462;10.846;2022-12-24T03:49:35;99710;;;
74485;BMP280;62942;52.462;10.846;2022-12-24T03:50:45;99720;;;
74485;BMP280;62942;52.462;10.846;2022-12-24T03:51:45;99710;;;
74485;BMP280;62942;52.462;10.846;2022-12-24T03:52:55;99710;;;
74485;BMP280;62942;52.462;10.846;2022-12-24T03:54:05;99710;;;
74485;BMP280;62942;52.462;10.846;2022-12-24T03:55:15;99720;;;
74485;BMP280;62942;52.462;10.846;2022-12-24T03:56:25;99720;;;
74485;BMP280;62942;52.462;10.846;2022-12-24T03:57:25;99720;;;
74485;BMP280;62942;52.462;10.846;2022-12-24T03:58:35;99720;;;
74485;BMP280;62942;52.462;10.846;2022-12-24T03:59:45;99730;;;
74485;BMP280;62942;52.462;10.846;2022-12-24T04:00:55;99710;;;
74485;BMP280;62942;52.462;10.846;2022-12-24T04:01:55;99730;;;
74485;BMP280;62942;52.462;10.846;2022-12-24T04:03:05;99730;;;
74485;BMP280;62942;52.462;10.846;2022-12-24T04:04:15;99740;;;
74485;BMP280;62942;52.462;10.846;2022-12-24T04:05:25;99730;;;
74485;BMP280;62942;52.462;10.846;2022-12-24T04:06:25;99730;;;
74485;BMP280;62942;52.462;10.846;2022-12-24T04:07:35;99720;;;
74485;BMP280;62942;52.462;10.846;2022-12-24T04:08:35;99730;;;
74485;BMP280;62942;52.462;10.846;2022-12-24T04:09:45;99720;;;
74485;BMP280;62942;52.462;10.846;2022-12-24T04:10:55;99720;;;
74485;BMP280;62942;52.462;10.846;2022-12-24T04:12:05;99720;;;
74485;BMP280;62942;52.462;10.846;2022-12-24T04:13:05;99720;;;
74485;BMP280;62942;52.462;10.846;2022-12-24T04:14:15;99730;;;
74485;BMP280;62942;52.462;10.846;2022-12-24T04:15:25;99730;;;
74485;BMP280;62942;52.462;10.846;2022-12-24T04:16:35;99730;;;
74485;BMP280;62942;52.462;10.846;2022-12-24T04:17:35;99740;;;
74485;BMP280;62942;52.462;10.846;2022-12-24T04:18:45;99730;;;
74485;BMP280;62942;52.462;10.846;2022-12-24T04:19:45;99730;;;
74485;BMP280;62942;52.462;10.846;2022-12-24T04:20:55;99730;;;
74485;BMP280;62942;52.462;10.846;2022-12-24T04:22:05;99730;;;
74485;BMP280;62942;52.462;10.846;2022-12-24T04:23:15;99740;;;
74485;BMP280;62942;52.462;10.846;2022-12-24T04:24:25;99740;;;
74485;BMP280;62942;52.462;10.846;2022-12-24T04:25:35;99740;;;
74485;BMP280;62942;52.462;10.846;2022-12-24T04:26:45;99750;;;
74485;BMP280;62942;52.462;10.846;2022-12-24T04:27:55;99740;;;
74485;BMP280;62942;52.462;10.846;2022-12-24T04:28:55;99740;;;
74485;BMP280;62942;52.462;10.846;2022-12-24T04:30:05;99740;;;
74485;BMP280;62942;52.462;10.846;2022-12-24T04:31:16;99740;;;
74485;BMP280;62942;52.462;10.846;2022-12-24T04:32:15;99740;;;
74485;BMP280;62942;52.462;10.846;2022-12-24T04:33:25;99740;;;
74485;BMP280;62942;52.462;10.846;2022-12-24T04:34:35;99730;;;
74485;BMP280;62942;52.462;10.846;2022-12-24T04:35:45;99740;;;
74485;BMP280;62942;52.462;10.846;2022-12-24T04:36:55;99740;;;
74485;BMP280;62942;52.462;10.846;2022-12-24T04:38:05;99740;;;
74485;BMP280;62942;52.462;10.846;2022-12-24T04:39:15;99740;;;
74485;BMP280;62942;52.462;10.846;2022-12-24T04:40:25;99750;;;
74485;BMP280;62942;52.462;10.846;2022-12-24T04:41:35;99760;;;
74485;BMP280;62942;52.462;10.846;2022-12-24T04:42:35;99750;;;
74485;BMP280;62942;52.462;10.846;2022-12-24T04:43:45;99760;;;
74485;BMP280;62942;52.462;10.846;2022-12-24T04:44:55;99760;;;
74485;BMP280;62942;52.462;10.846;2022-12-24T04:46:05;99770;;;
74485;BMP280;62942;52.462;10.846;2022-12-24T04:47:05;99780;;;
74485;BMP280;62942;52.462;10.846;2022-12-24T04:48:15;99770;;;
74485;BMP280;62942;52.462;10.846;2022-12-24T04:49:25;99760;;;
74485;BMP280;62942;52.462;10.846;2022-12-24T04:50:35;99760;;;
74485;BMP280;62942;52.462;10.846;2022-12-24T04:51:45;99760;;;
74485;BMP280;62942;52.462;10.846;2022-12-24T04:52:55;99770;;;
74485;BMP280;62942;52.462;10.846;2022-12-24T04:53:55;99760;;;
74485;BMP280;62942;52.462;10.846;2022-12-24T04:55:05;99760;;;
74485;BMP280;62942;52.462;10.846;2022-12-24T04:56:16;99760;;;
74485;BMP280;62942;52.462;10.846;2022-12-24T04:57:25;99760;;;
74485;BMP280;62942;52.462;10.846;2022-12-24T04:58:25;99760;;;
74485;BMP280;62942;52.462;10.846;2022-12-24T04:59:35;99760;;;
74485;BMP280;62942;52.462;10.846;2022-12-24T05:00:45;99760;;;
74485;BMP280;62942;52.462;10.846;2022-12-24T05:01:55;99750;;;
74485;BMP280;62942;52.462;10.846;2022-12-24T05:03:05;99760;;;
74485;BMP280;62942;52.462;10.846;2022-12-24T05:04:15;99760;;;
74485;BMP280;62942;52.462;10.846;2022-12-24T05:05:25;99760;;;
74485;BMP280;62942;52.462;10.846;2022-12-24T05:06:26;99760;;;
74485;BMP280;62942;52.462;10.846;2022-12-24T05:07:35;99760;;;
74485;BMP280;62942;52.462;10.846;2022-12-24T05:08:45;99760;;;
74485;BMP280;62942;52.462;10.846;2022-12-24T05:09:55;99770;;;
74485;BMP280;62942;52.462;10.846;2022-12-24T05:11:05;99770;;;
74485;BMP280;62942;52.462;10.846;2022-12-24T05:12:15;99770;;;
74485;BMP280;62942;52.462;10.846;2022-12-24T05:13:15;99770;;;
74485;BMP280;62942;52.462;10.846;2022-12-24T05:14:25;99770;;;
74485;BMP280;62942;52.462;10.846;2022-12-24T05:15:35;99770;;;
74485;BMP280;62942;52.462;10.846;2022-12-24T05:16:45;99780;;;
74485;BMP280;62942;52.462;10.846;2022-12-24T05:17:55;99770;;;
74485;BMP280;62942;52.462;10.846;2022-12-24T05:18:55;99780;;;
74485;BMP280;62942;52.462;10.846;2022-12-24T05:20:05;99780;;;
74485;BMP280;62942;52.462;10.846;2022-12-24T05:21:16;99790;;;
74485;BMP280;62942;52.462;10.846;2022-12-24T05:22:25;99780;;;
74485;BMP280;62942;52.462;10.846;2022-12-24T05:23:36;99780;;;
74485;BMP280;62942;52.462;10.846;2022-12-24T05:24:45;99780;;;
74485;BMP280;62942;52.462;10.846;2022-12-24T05:25:55;99780;;;
74485;BMP280;62942;52.462;10.846;2022-12-24T05:27:05;99780;;;
74485;BMP280;62942;52.462;10.846;2022-12-24T05:28:15;99790;;;
74485;BMP280;62942;52.462;10.846;2022-12-24T05:29:25;99790;;;
74485;BMP280;62942;52.462;10.846;2022-12-24T05:30:35;99790;;;
74485;BMP280;62942;52.462;10.846;2022-12-24T05:31:45;99800;;;
74485;BMP280;62942;52.462;10.846;2022-12-24T05:32:45;99810;;;
74485;BMP280;62942;52.462;10.846;2022-12-24T05:33:55;99810;;;
74485;BMP280;62942;52.462;10.846;2022-12-24T05:35:05;99810;;;
74485;BMP280;62942;52.462;10.846;2022-12-24T05:36:15;99810;;;
74485;BMP280;62942;52.462;10.846;2022-12-24T05:37:25;99810;;;
74485;BMP280;62942;52.462;10.846;2022-12-24T05:38:35;99810;;;
74485;BMP280;62942;52.462;10.846;2022-12-24T05:39:45;99810;;;
74485;BMP280;62942;52.462;10.846;2022-12-24T05:40:45;99810;;;
74485;BMP280;62942;52.462;10.846;2022-12-24T05:41:55;99810;;;
74485;BMP280;62942;52.462;10.846;2022-12-24T05:43:05;99810;;;
74485;BMP280;62942;52.462;10.846;2022-12-24T05:44:15;99820;;;
74485;BMP280;62942;52.462;10.846;2022-12-24T05:45:15;99820;;;
74485;BMP280;62942;52.462;10.846;2022-12-24T05:46:25;99810;;;
74485;BMP280;62942;52.462;10.846;2022-12-24T05:47:35;99820;;;
74485;BMP280;62942;52.462;10.846;2022-12-24T05:48:45;99820;;;
74485;BMP280;62942;52.462;10.846;2022-12-24T05:49:55;99820;;;
74485;BMP280;62942;52.462;10.846;2022-12-24T05:50:55;99830;;;
74485;BMP280;62942;52.462;10.846;2022-12-24T05:52:05;99830;;;
74485;BMP280;62942;52.462;10.846;2022-12-24T05:53:15;99830;;;
74485;BMP280;62942;52.462;10.846;2022-12-24T05:54:15;99830;;;
74485;BMP280;62942;52.462;10.846;2022-12-24T05:55:25;99830;;;
74485;BMP280;62942;52.462;10.846;2022-12-24T05:56:25;99830;;;
74485;BMP280;62942;52.462;10.846;2022-12-24T05:57:35;99840;;;
74485;BMP280;62942;52.462;10.846;2022-12-24T05:58:45;99830;;;
74485;BMP280;62942;52.462;10.846;2022-12-24T05:59:55;99830;;;
74485;BMP280;62942;52.462;10.846;2022-12-24T06:00:55;99840;;;
74485;BMP280;62942;52.462;10.846;2022-12-24T06:02:05;99840;;;
74485;BMP280;62942;52.462;10.846;2022-12-24T06:03:15;99840;;;
74485;BMP280;62942;52.462;10.846;2022-12-24T06:04:25;99840;;;
74485;BMP280;62942;52.462;10.846;2022-12-24T06:05:35;99840;;;
74485;BMP280;62942;52.462;10.846;2022-12-24T06:06:45;99840;;;
74485;BMP280;62942;52.462;10.846;2022-12-24T06:07:45;99840;;;
74485;BMP280;62942;52.462;10.846;2022-12-24T06:08:55;99840;;;
74485;BMP280;62942;52.462;10.846;2022-12-24T06:10:05;99830;;;
74485;BMP280;62942;52.462;10.846;2022-12-24T06:11:16;99840;;;
74485;BMP280;62942;52.462;10.846;2022-12-24T06:12:15;99840;;;
74485;BMP280;62942;52.462;10.846;2022-12-24T06:13:25;99830;;;
74485;BMP280;62942;52.462;10.846;2022-12-24T06:14:35;99830;;;
74485;BMP280;62942;52.462;10.846;2022-12-24T06:15:45;99840;;;
74485;BMP280;62942;52.462;10.846;2022-12-24T06:16:45;99840;;;
74485;BMP280;62942;52.462;10.846;2022-12-24T06:17:55;99850;;;
74485;BMP280;62942;52.462;10.846;2022-12-24T06:19:05;99850;;;
74485;BMP280;62942;52.462;10.846;2022-12-24T06:20:05;99840;;;
74485;BMP280;62942;52.462;10.846;2022-12-24T06:21:15;99840;;;
74485;BMP280;62942;52.462;10.846;2022-12-24T06:22:25;99860;;;
74485;BMP280;62942;52.462;10.846;2022-12-24T06:23:25;99850;;;
74485;BMP280;62942;52.462;10.846;2022-12-24T06:24:25;99860;;;
74485;BMP280;62942;52.462;10.846;2022-12-24T06:25:35;99850;;;
74485;BMP280;62942;52.462;10.846;2022-12-24T06:26:45;99860;;;
74485;BMP280;62942;52.462;10.846;2022-12-24T06:27:55;99860;;;
74485;BMP280;62942;52.462;10.846;2022-12-24T06:28:55;99860;;;
74485;BMP280;62942;52.462;10.846;2022-12-24T06:30:05;99860;;;
74485;BMP280;62942;52.462;10.846;2022-12-24T06:31:06;99850;;;
74485;BMP280;62942;52.462;10.846;2022-12-24T06:32:15;99840;;;
74485;BMP280;62942;52.462;10.846;2022-12-24T06:33:15;99860;;;
74485;BMP280;62942;52.462;10.846;2022-12-24T06:34:25;99860;;;
74485;BMP280;62942;52.462;10.846;2022-12-24T06:35:25;99860;;;
74485;BMP280;62942;52.462;10.846;2022-12-24T06:36:35;99870;;;
74485;BMP280;62942;52.462;10.846;2022-12-24T06:37:45;99880;;;
74485;BMP280;62942;52.462;10.846;2022-12-24T06:38:55;99880;;;
74485;BMP280;62942;52.462;10.846;2022-12-24T06:40:05;99880;;;
74485;BMP280;62942;52.462;10.846;2022-12-24T06:41:15;99890;;;
74485;BMP280;62942;52.462;10.846;2022-12-24T06:42:15;99870;;;
74485;BMP280;62942;52.462;10.846;2022-12-24T06:43:25;99880;;;
74485;BMP280;62942;52.462;10.846;2022-12-24T06:44:25;99870;;;
74485;BMP280;62942;52.462;10.846;2022-12-24T06:45:35;99880;;;
74485;BMP280;62942;52.462;10.846;2022-12-24T06:46:35;99890;;;
74485;BMP280;62942;52.462;10.846;2022-12-24T06:47:35;99890;;;
74485;BMP280;62942;52.462;10.846;2022-12-24T06:48:45;99900;;;
74485;BMP280;62942;52.462;10.846;2022-12-24T06:49:45;99890;;;
74485;BMP280;62942;52.462;10.846;2022-12-24T06:50:55;99890;;;
74485;BMP280;62942;52.462;10.846;2022-12-24T06:52:05;99890;;;
74485;BMP280;62942;52.462;10.846;2022-12-24T06:53:15;99890;;;
74485;BMP280;62942;52.462;10.846;2022-12-24T06:54:25;99890;;;
74485;BMP280;62942;52.462;10.846;2022-12-24T06:55:35;99900;;;
74485;BMP280;62942;52.462;10.846;2022-12-24T06:56:45;99900;;;
74485;BMP280;62942;52.462;10.846;2022-12-24T06:57:55;99900;;;
74485;BMP280;62942;52.462;10.846;2022-12-24T06:59:05;99900;;;
74485;BMP280;62942;52.462;10.846;2022-12-24T07:00:05;99900;;;
74485;BMP280;62942;52.462;10.846;2022-12-24T07:01:06;99910;;;
74485;BMP280;62942;52.462;10.846;2022-12-24T07:02:15;99910;;;
74485;BMP280;62942;52.462;10.846;2022-12-24T07:03:25;99910;;;
74485;BMP280;62942;52.462;10.846;2022-12-24T07:04:35;99920;;;
74485;BMP280;62942;52.462;10.846;2022-12-24T07:05:35;99920;;;
74485;BMP280;62942;52.462;10.846;2022-12-24T07:06:45;99920;;;
74485;BMP280;62942;52.462;10.846;2022-12-24T07:07:45;99930;;;
74485;BMP280;62942;52.462;10.846;2022-12-24T07:08:55;99930;;;
74485;BMP280;62942;52.462;10.846;2022-12-24T07:10:05;99930;;;